sensor_id;sensor_type;location;lat;lon;timestamp;P1;durP1;ratioP1;P2;durP2;ratioP2
79361;SDS011;68830;47.566;19.012;2023-09-18T00:00:50;19.02;;;16.55;;
79361;SDS011;68830;47.566;19.012;2023-09-18T00:03:52;19.20;;;16.88;;
79361;SDS011;68830;47.566;19.012;2023-09-18T00:06:54;20.40;;;18.05;;
79361;SDS011;68830;47.566;19.012;2023-09-18T00:09:57;16.88;;;15.10;;
79361;SDS011;68830;47.566;19.012;2023-09-18T00:13:00;20.38;;;18.15;;
79361;SDS011;68830;47.566;19.012;2023-09-18T00:16:03;19.45;;;17.52;;
79361;SDS011;68830;47.566;19.012;2023-09-18T00:19:05;19.95;;;16.75;;
79361;SDS011;68830;47.566;19.012;2023-09-18T00:22:09;19.67;;;17.65;;
79361;SDS011;68830;47.566;19.012;2023-09-18T00:25:12;20.27;;;16.42;;
79361;SDS011;68830;47.566;19.012;2023-09-18T00:28:17;20.05;;;17.75;;
79361;SDS011;68830;47.566;19.012;2023-09-18T00:31:20;18.95;;;17.05;;
79361;SDS011;68830;47.566;19.012;2023-09-18T00:34:22;17.58;;;15.70;;
79361;SDS011;68830;47.566;19.012;2023-09-18T00:37:23;19.30;;;16.30;;
79361;SDS011;68830;47.566;19.012;2023-09-18T00:40:25;17.00;;;15.18;;
79361;SDS011;68830;47.566;19.012;2023-09-18T00:43:29;20.30;;;17.20;;
79361;SDS011;68830;47.566;19.012;2023-09-18T00:46:31;18.65;;;16.70;;
79361;SDS011;68830;47.566;19.012;2023-09-18T00:49:34;21.00;;;17.65;;
79361;SDS011;68830;47.566;19.012;2023-09-18T00:52:38;18.20;;;16.15;;
79361;SDS011;68830;47.566;19.012;2023-09-18T00:55:42;18.95;;;16.30;;
79361;SDS011;68830;47.566;19.012;2023-09-18T00:58:46;18.83;;;16.83;;
79361;SDS011;68830;47.566;19.012;2023-09-18T01:01:48;20.40;;;17.73;;
79361;SDS011;68830;47.566;19.012;2023-09-18T01:04:51;20.20;;;17.98;;
79361;SDS011;68830;47.566;19.012;2023-09-18T01:07:54;19.88;;;17.75;;
79361;SDS011;68830;47.566;19.012;2023-09-18T01:11:01;18.10;;;16.20;;
79361;SDS011;68830;47.566;19.012;2023-09-18T01:14:14;20.27;;;17.77;;
79361;SDS011;68830;47.566;19.012;2023-09-18T01:17:21;18.63;;;15.85;;
79361;SDS011;68830;47.566;19.012;2023-09-18T01:20:23;23.83;;;17.42;;
79361;SDS011;68830;47.566;19.012;2023-09-18T01:23:28;19.00;;;15.95;;
79361;SDS011;68830;47.566;19.012;2023-09-18T01:26:30;17.80;;;15.90;;
79361;SDS011;68830;47.566;19.012;2023-09-18T01:29:32;21.42;;;18.08;;
79361;SDS011;68830;47.566;19.012;2023-09-18T01:32:34;22.08;;;17.70;;
79361;SDS011;68830;47.566;19.012;2023-09-18T01:35:39;19.92;;;17.20;;
79361;SDS011;68830;47.566;19.012;2023-09-18T01:38:44;18.40;;;16.60;;
79361;SDS011;68830;47.566;19.012;2023-09-18T01:41:47;19.27;;;17.33;;
79361;SDS011;68830;47.566;19.012;2023-09-18T01:44:50;19.60;;;17.60;;
79361;SDS011;68830;47.566;19.012;2023-09-18T01:47:53;20.10;;;17.23;;
79361;SDS011;68830;47.566;19.012;2023-09-18T01:50:55;19.38;;;16.73;;
79361;SDS011;68830;47.566;19.012;2023-09-18T01:53:58;19.10;;;16.80;;
79361;SDS011;68830;47.566;19.012;2023-09-18T01:57:01;20.08;;;17.95;;
79361;SDS011;68830;47.566;19.012;2023-09-18T02:00:05;18.58;;;16.60;;
79361;SDS011;68830;47.566;19.012;2023-09-18T02:03:10;20.05;;;16.20;;
79361;SDS011;68830;47.566;19.012;2023-09-18T02:06:33;17.77;;;15.18;;
79361;SDS011;68830;47.566;19.012;2023-09-18T02:09:37;18.33;;;16.42;;
79361;SDS011;68830;47.566;19.012;2023-09-18T02:12:39;18.90;;;16.90;;
79361;SDS011;68830;47.566;19.012;2023-09-18T02:15:41;18.80;;;16.77;;
79361;SDS011;68830;47.566;19.012;2023-09-18T02:18:45;18.10;;;16.20;;
79361;SDS011;68830;47.566;19.012;2023-09-18T02:21:48;20.27;;;16.10;;
79361;SDS011;68830;47.566;19.012;2023-09-18T02:24:52;17.30;;;15.30;;
79361;SDS011;68830;47.566;19.012;2023-09-18T02:27:54;19.13;;;15.93;;
79361;SDS011;68830;47.566;19.012;2023-09-18T02:30:56;16.83;;;14.82;;
79361;SDS011;68830;47.566;19.012;2023-09-18T02:33:58;17.90;;;15.63;;
79361;SDS011;68830;47.566;19.012;2023-09-18T02:37:01;21.00;;;16.55;;
79361;SDS011;68830;47.566;19.012;2023-09-18T02:40:05;18.58;;;16.63;;
79361;SDS011;68830;47.566;19.012;2023-09-18T02:43:09;19.00;;;15.88;;
79361;SDS011;68830;47.566;19.012;2023-09-18T02:46:11;18.08;;;16.17;;
79361;SDS011;68830;47.566;19.012;2023-09-18T02:49:13;15.63;;;14.02;;
79361;SDS011;68830;47.566;19.012;2023-09-18T02:52:15;23.63;;;15.82;;
79361;SDS011;68830;47.566;19.012;2023-09-18T02:55:19;18.33;;;15.23;;
79361;SDS011;68830;47.566;19.012;2023-09-18T02:58:21;18.15;;;14.45;;
79361;SDS011;68830;47.566;19.012;2023-09-18T03:01:25;18.02;;;14.45;;
79361;SDS011;68830;47.566;19.012;2023-09-18T03:04:29;17.17;;;15.25;;
79361;SDS011;68830;47.566;19.012;2023-09-18T03:10:37;16.10;;;13.50;;
79361;SDS011;68830;47.566;19.012;2023-09-18T03:13:42;19.88;;;16.58;;
79361;SDS011;68830;47.566;19.012;2023-09-18T03:16:47;16.50;;;14.80;;
79361;SDS011;68830;47.566;19.012;2023-09-18T03:19:49;19.55;;;14.57;;
79361;SDS011;68830;47.566;19.012;2023-09-18T03:22:52;16.58;;;14.75;;
79361;SDS011;68830;47.566;19.012;2023-09-18T03:25:57;15.73;;;14.10;;
79361;SDS011;68830;47.566;19.012;2023-09-18T03:29:01;16.50;;;14.80;;
79361;SDS011;68830;47.566;19.012;2023-09-18T03:32:03;15.48;;;13.88;;
79361;SDS011;68830;47.566;19.012;2023-09-18T03:35:06;17.85;;;15.98;;
79361;SDS011;68830;47.566;19.012;2023-09-18T03:38:10;16.83;;;15.18;;
79361;SDS011;68830;47.566;19.012;2023-09-18T03:41:13;17.38;;;15.63;;
79361;SDS011;68830;47.566;19.012;2023-09-18T03:44:15;18.63;;;15.52;;
79361;SDS011;68830;47.566;19.012;2023-09-18T03:47:18;17.63;;;15.07;;
79361;SDS011;68830;47.566;19.012;2023-09-18T03:50:20;16.98;;;14.20;;
79361;SDS011;68830;47.566;19.012;2023-09-18T03:53:22;20.35;;;17.38;;
79361;SDS011;68830;47.566;19.012;2023-09-18T03:56:26;17.63;;;15.25;;
79361;SDS011;68830;47.566;19.012;2023-09-18T03:59:28;17.85;;;15.73;;
79361;SDS011;68830;47.566;19.012;2023-09-18T04:02:30;20.30;;;16.50;;
79361;SDS011;68830;47.566;19.012;2023-09-18T04:05:32;18.30;;;15.63;;
79361;SDS011;68830;47.566;19.012;2023-09-18T04:08:34;20.63;;;16.05;;
79361;SDS011;68830;47.566;19.012;2023-09-18T04:11:38;18.20;;;16.05;;
79361;SDS011;68830;47.566;19.012;2023-09-18T04:14:40;21.05;;;15.35;;
79361;SDS011;68830;47.566;19.012;2023-09-18T04:17:43;17.85;;;15.55;;
79361;SDS011;68830;47.566;19.012;2023-09-18T04:20:46;15.73;;;14.00;;
79361;SDS011;68830;47.566;19.012;2023-09-18T04:23:48;16.77;;;15.07;;
79361;SDS011;68830;47.566;19.012;2023-09-18T04:26:58;14.82;;;13.25;;
79361;SDS011;68830;47.566;19.012;2023-09-18T04:30:00;16.48;;;14.35;;
79361;SDS011;68830;47.566;19.012;2023-09-18T04:33:02;15.45;;;13.93;;
79361;SDS011;68830;47.566;19.012;2023-09-18T04:36:05;15.48;;;13.70;;
79361;SDS011;68830;47.566;19.012;2023-09-18T04:39:07;17.38;;;15.38;;
79361;SDS011;68830;47.566;19.012;2023-09-18T04:42:12;16.05;;;14.35;;
79361;SDS011;68830;47.566;19.012;2023-09-18T04:45:13;17.08;;;13.02;;
79361;SDS011;68830;47.566;19.012;2023-09-18T04:48:17;16.00;;;13.68;;
79361;SDS011;68830;47.566;19.012;2023-09-18T04:51:19;17.00;;;15.23;;
79361;SDS011;68830;47.566;19.012;2023-09-18T04:54:21;14.68;;;13.18;;
79361;SDS011;68830;47.566;19.012;2023-09-18T04:57:24;14.70;;;13.10;;
79361;SDS011;68830;47.566;19.012;2023-09-18T05:00:27;18.15;;;14.75;;
79361;SDS011;68830;47.566;19.012;2023-09-18T05:03:32;18.10;;;13.52;;
79361;SDS011;68830;47.566;19.012;2023-09-18T05:06:35;16.15;;;14.30;;
79361;SDS011;68830;47.566;19.012;2023-09-18T05:09:37;18.17;;;14.77;;
79361;SDS011;68830;47.566;19.012;2023-09-18T05:12:42;15.35;;;13.75;;
79361;SDS011;68830;47.566;19.012;2023-09-18T05:15:44;15.60;;;13.77;;
79361;SDS011;68830;47.566;19.012;2023-09-18T05:18:46;16.95;;;14.23;;
79361;SDS011;68830;47.566;19.012;2023-09-18T05:21:48;16.83;;;14.93;;
79361;SDS011;68830;47.566;19.012;2023-09-18T05:24:51;19.13;;;14.38;;
79361;SDS011;68830;47.566;19.012;2023-09-18T05:27:54;19.45;;;15.68;;
79361;SDS011;68830;47.566;19.012;2023-09-18T05:30:59;15.65;;;14.02;;
79361;SDS011;68830;47.566;19.012;2023-09-18T05:34:01;15.43;;;13.13;;
79361;SDS011;68830;47.566;19.012;2023-09-18T05:37:04;28.17;;;15.75;;
79361;SDS011;68830;47.566;19.012;2023-09-18T05:40:06;15.93;;;14.00;;
79361;SDS011;68830;47.566;19.012;2023-09-18T05:43:15;19.05;;;14.43;;
79361;SDS011;68830;47.566;19.012;2023-09-18T05:46:17;17.80;;;14.70;;
79361;SDS011;68830;47.566;19.012;2023-09-18T05:49:19;17.20;;;13.45;;
79361;SDS011;68830;47.566;19.012;2023-09-18T05:52:22;16.80;;;13.50;;
79361;SDS011;68830;47.566;19.012;2023-09-18T05:55:25;14.43;;;12.93;;
79361;SDS011;68830;47.566;19.012;2023-09-18T05:58:29;16.42;;;13.80;;
79361;SDS011;68830;47.566;19.012;2023-09-18T06:01:33;18.52;;;15.88;;
79361;SDS011;68830;47.566;19.012;2023-09-18T06:04:35;21.63;;;19.60;;
79361;SDS011;68830;47.566;19.012;2023-09-18T06:07:39;21.40;;;19.40;;
79361;SDS011;68830;47.566;19.012;2023-09-18T06:10:41;22.38;;;20.27;;
79361;SDS011;68830;47.566;19.012;2023-09-18T06:13:45;21.23;;;19.23;;
79361;SDS011;68830;47.566;19.012;2023-09-18T06:16:47;19.20;;;17.45;;
79361;SDS011;68830;47.566;19.012;2023-09-18T06:19:50;17.30;;;15.65;;
79361;SDS011;68830;47.566;19.012;2023-09-18T06:22:52;17.73;;;15.85;;
79361;SDS011;68830;47.566;19.012;2023-09-18T06:25:54;18.05;;;16.30;;
79361;SDS011;68830;47.566;19.012;2023-09-18T06:28:59;17.40;;;15.88;;
79361;SDS011;68830;47.566;19.012;2023-09-18T06:32:02;15.65;;;13.23;;
79361;SDS011;68830;47.566;19.012;2023-09-18T06:35:04;15.73;;;12.45;;
79361;SDS011;68830;47.566;19.012;2023-09-18T06:38:08;12.95;;;11.63;;
79361;SDS011;68830;47.566;19.012;2023-09-18T06:41:13;15.45;;;11.52;;
79361;SDS011;68830;47.566;19.012;2023-09-18T06:44:17;16.67;;;12.93;;
79361;SDS011;68830;47.566;19.012;2023-09-18T06:47:19;13.60;;;11.27;;
79361;SDS011;68830;47.566;19.012;2023-09-18T06:50:21;12.93;;;11.52;;
79361;SDS011;68830;47.566;19.012;2023-09-18T06:53:23;15.55;;;12.05;;
79361;SDS011;68830;47.566;19.012;2023-09-18T06:56:26;16.45;;;11.07;;
79361;SDS011;68830;47.566;19.012;2023-09-18T06:59:29;18.42;;;11.05;;
79361;SDS011;68830;47.566;19.012;2023-09-18T07:02:33;14.65;;;12.10;;
79361;SDS011;68830;47.566;19.012;2023-09-18T07:05:35;15.35;;;13.82;;
79361;SDS011;68830;47.566;19.012;2023-09-18T07:08:37;15.07;;;13.13;;
79361;SDS011;68830;47.566;19.012;2023-09-18T07:11:40;15.27;;;13.43;;
79361;SDS011;68830;47.566;19.012;2023-09-18T07:14:43;13.60;;;12.20;;
79361;SDS011;68830;47.566;19.012;2023-09-18T07:17:45;17.73;;;13.25;;
79361;SDS011;68830;47.566;19.012;2023-09-18T07:20:47;14.38;;;12.88;;
79361;SDS011;68830;47.566;19.012;2023-09-18T07:23:49;15.48;;;13.82;;
79361;SDS011;68830;47.566;19.012;2023-09-18T07:26:52;16.45;;;13.27;;
79361;SDS011;68830;47.566;19.012;2023-09-18T07:29:56;16.60;;;12.70;;
79361;SDS011;68830;47.566;19.012;2023-09-18T07:32:59;14.32;;;12.93;;
79361;SDS011;68830;47.566;19.012;2023-09-18T07:36:02;14.45;;;12.95;;
79361;SDS011;68830;47.566;19.012;2023-09-18T07:39:05;15.23;;;13.63;;
79361;SDS011;68830;47.566;19.012;2023-09-18T07:42:08;17.55;;;14.07;;
79361;SDS011;68830;47.566;19.012;2023-09-18T07:45:11;13.88;;;12.30;;
79361;SDS011;68830;47.566;19.012;2023-09-18T07:48:13;18.17;;;13.45;;
79361;SDS011;68830;47.566;19.012;2023-09-18T07:51:18;15.50;;;12.70;;
79361;SDS011;68830;47.566;19.012;2023-09-18T07:54:21;14.15;;;12.77;;
79361;SDS011;68830;47.566;19.012;2023-09-18T07:57:22;14.48;;;13.05;;
79361;SDS011;68830;47.566;19.012;2023-09-18T08:00:27;12.52;;;11.20;;
79361;SDS011;68830;47.566;19.012;2023-09-18T08:03:29;15.15;;;12.15;;
79361;SDS011;68830;47.566;19.012;2023-09-18T08:06:32;12.90;;;10.98;;
79361;SDS011;68830;47.566;19.012;2023-09-18T08:09:34;14.70;;;11.57;;
79361;SDS011;68830;47.566;19.012;2023-09-18T08:12:40;12.40;;;11.25;;
79361;SDS011;68830;47.566;19.012;2023-09-18T08:15:44;12.45;;;11.20;;
79361;SDS011;68830;47.566;19.012;2023-09-18T08:18:46;15.75;;;11.80;;
79361;SDS011;68830;47.566;19.012;2023-09-18T08:21:49;14.23;;;9.80;;
79361;SDS011;68830;47.566;19.012;2023-09-18T08:24:53;11.95;;;10.75;;
79361;SDS011;68830;47.566;19.012;2023-09-18T08:27:55;14.10;;;11.27;;
79361;SDS011;68830;47.566;19.012;2023-09-18T08:30:59;12.82;;;10.93;;
79361;SDS011;68830;47.566;19.012;2023-09-18T08:34:03;12.80;;;11.25;;
79361;SDS011;68830;47.566;19.012;2023-09-18T08:37:05;13.00;;;11.70;;
79361;SDS011;68830;47.566;19.012;2023-09-18T08:40:11;12.02;;;10.70;;
79361;SDS011;68830;47.566;19.012;2023-09-18T08:43:15;13.82;;;11.30;;
79361;SDS011;68830;47.566;19.012;2023-09-18T08:46:21;15.55;;;12.43;;
79361;SDS011;68830;47.566;19.012;2023-09-18T08:49:24;16.02;;;10.23;;
79361;SDS011;68830;47.566;19.012;2023-09-18T08:52:26;11.80;;;10.80;;
79361;SDS011;68830;47.566;19.012;2023-09-18T08:55:29;16.35;;;11.05;;
79361;SDS011;68830;47.566;19.012;2023-09-18T08:58:32;12.85;;;11.65;;
79361;SDS011;68830;47.566;19.012;2023-09-18T09:01:39;16.25;;;11.05;;
79361;SDS011;68830;47.566;19.012;2023-09-18T09:04:41;12.57;;;11.38;;
79361;SDS011;68830;47.566;19.012;2023-09-18T09:07:43;12.40;;;10.90;;
79361;SDS011;68830;47.566;19.012;2023-09-18T09:10:45;12.48;;;10.88;;
79361;SDS011;68830;47.566;19.012;2023-09-18T09:13:47;12.23;;;10.68;;
79361;SDS011;68830;47.566;19.012;2023-09-18T09:16:50;13.88;;;10.98;;
79361;SDS011;68830;47.566;19.012;2023-09-18T09:19:53;12.52;;;10.55;;
79361;SDS011;68830;47.566;19.012;2023-09-18T09:23:10;16.15;;;11.02;;
79361;SDS011;68830;47.566;19.012;2023-09-18T09:26:13;12.50;;;10.45;;
79361;SDS011;68830;47.566;19.012;2023-09-18T09:29:17;11.27;;;10.25;;
79361;SDS011;68830;47.566;19.012;2023-09-18T09:32:22;11.25;;;10.15;;
79361;SDS011;68830;47.566;19.012;2023-09-18T09:35:26;11.57;;;10.57;;
79361;SDS011;68830;47.566;19.012;2023-09-18T09:38:29;12.05;;;10.68;;
79361;SDS011;68830;47.566;19.012;2023-09-18T09:41:35;13.10;;;10.75;;
79361;SDS011;68830;47.566;19.012;2023-09-18T09:44:37;11.60;;;10.43;;
79361;SDS011;68830;47.566;19.012;2023-09-18T09:47:41;12.60;;;9.82;;
79361;SDS011;68830;47.566;19.012;2023-09-18T09:50:48;11.65;;;10.45;;
79361;SDS011;68830;47.566;19.012;2023-09-18T09:53:50;11.27;;;10.27;;
79361;SDS011;68830;47.566;19.012;2023-09-18T09:56:53;10.85;;;9.85;;
79361;SDS011;68830;47.566;19.012;2023-09-18T10:00:02;13.18;;;11.75;;
79361;SDS011;68830;47.566;19.012;2023-09-18T10:03:25;10.80;;;9.90;;
79361;SDS011;68830;47.566;19.012;2023-09-18T10:06:27;10.60;;;9.57;;
79361;SDS011;68830;47.566;19.012;2023-09-18T10:09:31;11.25;;;10.07;;
79361;SDS011;68830;47.566;19.012;2023-09-18T10:12:37;11.00;;;10.02;;
79361;SDS011;68830;47.566;19.012;2023-09-18T10:15:41;15.45;;;11.07;;
79361;SDS011;68830;47.566;19.012;2023-09-18T10:18:49;12.50;;;10.52;;
79361;SDS011;68830;47.566;19.012;2023-09-18T10:22:00;13.10;;;10.93;;
79361;SDS011;68830;47.566;19.012;2023-09-18T10:25:11;10.63;;;9.68;;
79361;SDS011;68830;47.566;19.012;2023-09-18T10:28:19;13.43;;;11.25;;
79361;SDS011;68830;47.566;19.012;2023-09-18T10:31:22;12.57;;;11.35;;
79361;SDS011;68830;47.566;19.012;2023-09-18T10:34:27;12.15;;;9.60;;
79361;SDS011;68830;47.566;19.012;2023-09-18T10:37:32;9.93;;;8.88;;
79361;SDS011;68830;47.566;19.012;2023-09-18T10:40:36;12.50;;;10.80;;
79361;SDS011;68830;47.566;19.012;2023-09-18T10:43:40;10.95;;;9.95;;
79361;SDS011;68830;47.566;19.012;2023-09-18T10:46:42;10.52;;;9.48;;
79361;SDS011;68830;47.566;19.012;2023-09-18T10:49:45;12.43;;;11.25;;
79361;SDS011;68830;47.566;19.012;2023-09-18T10:52:47;10.68;;;9.65;;
79361;SDS011;68830;47.566;19.012;2023-09-18T10:55:49;10.77;;;8.98;;
79361;SDS011;68830;47.566;19.012;2023-09-18T10:58:56;11.45;;;10.35;;
79361;SDS011;68830;47.566;19.012;2023-09-18T11:02:02;10.63;;;9.73;;
79361;SDS011;68830;47.566;19.012;2023-09-18T11:05:08;12.85;;;11.65;;
79361;SDS011;68830;47.566;19.012;2023-09-18T11:08:29;11.98;;;10.55;;
79361;SDS011;68830;47.566;19.012;2023-09-18T11:11:35;11.70;;;10.55;;
79361;SDS011;68830;47.566;19.012;2023-09-18T11:14:42;11.07;;;9.93;;
79361;SDS011;68830;47.566;19.012;2023-09-18T11:17:55;11.40;;;10.30;;
79361;SDS011;68830;47.566;19.012;2023-09-18T11:21:08;11.50;;;10.45;;
79361;SDS011;68830;47.566;19.012;2023-09-18T11:24:15;11.82;;;10.65;;
79361;SDS011;68830;47.566;19.012;2023-09-18T11:27:23;12.20;;;11.00;;
79361;SDS011;68830;47.566;19.012;2023-09-18T11:30:26;11.48;;;10.48;;
79361;SDS011;68830;47.566;19.012;2023-09-18T11:33:31;10.93;;;10.02;;
79361;SDS011;68830;47.566;19.012;2023-09-18T11:36:36;11.02;;;9.77;;
79361;SDS011;68830;47.566;19.012;2023-09-18T11:39:40;11.45;;;10.45;;
79361;SDS011;68830;47.566;19.012;2023-09-18T11:42:49;12.48;;;11.38;;
79361;SDS011;68830;47.566;19.012;2023-09-18T11:46:25;12.35;;;11.20;;
79361;SDS011;68830;47.566;19.012;2023-09-18T11:49:28;12.75;;;11.60;;
79361;SDS011;68830;47.566;19.012;2023-09-18T11:52:34;12.98;;;11.65;;
79361;SDS011;68830;47.566;19.012;2023-09-18T11:55:37;12.50;;;10.68;;
79361;SDS011;68830;47.566;19.012;2023-09-18T11:58:46;12.15;;;10.98;;
79361;SDS011;68830;47.566;19.012;2023-09-18T12:01:52;11.25;;;10.20;;
79361;SDS011;68830;47.566;19.012;2023-09-18T12:04:54;13.25;;;11.20;;
79361;SDS011;68830;47.566;19.012;2023-09-18T12:07:58;14.98;;;10.95;;
79361;SDS011;68830;47.566;19.012;2023-09-18T12:11:04;11.65;;;10.52;;
79361;SDS011;68830;47.566;19.012;2023-09-18T12:14:07;12.73;;;11.52;;
79361;SDS011;68830;47.566;19.012;2023-09-18T12:17:12;11.98;;;10.77;;
79361;SDS011;68830;47.566;19.012;2023-09-18T12:20:16;13.45;;;10.63;;
79361;SDS011;68830;47.566;19.012;2023-09-18T12:23:22;14.02;;;10.43;;
79361;SDS011;68830;47.566;19.012;2023-09-18T12:26:26;11.65;;;10.52;;
79361;SDS011;68830;47.566;19.012;2023-09-18T12:29:28;11.75;;;10.55;;
79361;SDS011;68830;47.566;19.012;2023-09-18T12:32:35;14.95;;;10.45;;
79361;SDS011;68830;47.566;19.012;2023-09-18T12:38:43;10.68;;;9.57;;
79361;SDS011;68830;47.566;19.012;2023-09-18T12:41:45;10.45;;;9.52;;
79361;SDS011;68830;47.566;19.012;2023-09-18T12:44:49;11.02;;;9.95;;
79361;SDS011;68830;47.566;19.012;2023-09-18T12:47:54;15.75;;;10.75;;
79361;SDS011;68830;47.566;19.012;2023-09-18T12:51:02;11.80;;;10.70;;
79361;SDS011;68830;47.566;19.012;2023-09-18T12:54:06;11.40;;;10.30;;
79361;SDS011;68830;47.566;19.012;2023-09-18T12:57:09;11.32;;;10.23;;
79361;SDS011;68830;47.566;19.012;2023-09-18T13:00:12;11.52;;;10.00;;
79361;SDS011;68830;47.566;19.012;2023-09-18T13:03:16;12.32;;;10.90;;
79361;SDS011;68830;47.566;19.012;2023-09-18T13:06:18;9.90;;;8.95;;
79361;SDS011;68830;47.566;19.012;2023-09-18T13:09:22;11.52;;;10.40;;
79361;SDS011;68830;47.566;19.012;2023-09-18T13:12:25;10.73;;;9.73;;
79361;SDS011;68830;47.566;19.012;2023-09-18T13:15:27;9.88;;;9.07;;
79361;SDS011;68830;47.566;19.012;2023-09-18T13:18:31;11.70;;;9.40;;
79361;SDS011;68830;47.566;19.012;2023-09-18T13:21:34;10.23;;;9.30;;
79361;SDS011;68830;47.566;19.012;2023-09-18T13:24:39;9.48;;;8.45;;
79361;SDS011;68830;47.566;19.012;2023-09-18T13:27:41;13.15;;;10.25;;
79361;SDS011;68830;47.566;19.012;2023-09-18T13:30:44;10.77;;;9.38;;
79361;SDS011;68830;47.566;19.012;2023-09-18T13:33:46;10.65;;;9.23;;
79361;SDS011;68830;47.566;19.012;2023-09-18T13:36:53;10.82;;;9.68;;
79361;SDS011;68830;47.566;19.012;2023-09-18T13:39:56;10.80;;;8.93;;
79361;SDS011;68830;47.566;19.012;2023-09-18T13:42:58;13.02;;;9.98;;
79361;SDS011;68830;47.566;19.012;2023-09-18T13:46:01;9.68;;;8.85;;
79361;SDS011;68830;47.566;19.012;2023-09-18T13:49:06;9.13;;;8.32;;
79361;SDS011;68830;47.566;19.012;2023-09-18T13:52:07;10.27;;;9.35;;
79361;SDS011;68830;47.566;19.012;2023-09-18T13:55:11;10.95;;;9.07;;
79361;SDS011;68830;47.566;19.012;2023-09-18T13:58:13;10.75;;;9.63;;
79361;SDS011;68830;47.566;19.012;2023-09-18T14:01:16;10.85;;;9.75;;
79361;SDS011;68830;47.566;19.012;2023-09-18T14:04:18;14.38;;;9.32;;
79361;SDS011;68830;47.566;19.012;2023-09-18T14:07:21;11.02;;;9.95;;
79361;SDS011;68830;47.566;19.012;2023-09-18T14:10:25;11.18;;;10.18;;
79361;SDS011;68830;47.566;19.012;2023-09-18T14:13:28;10.10;;;9.20;;
79361;SDS011;68830;47.566;19.012;2023-09-18T14:16:30;10.40;;;9.23;;
79361;SDS011;68830;47.566;19.012;2023-09-18T14:22:40;11.73;;;9.93;;
79361;SDS011;68830;47.566;19.012;2023-09-18T14:25:43;11.38;;;10.00;;
79361;SDS011;68830;47.566;19.012;2023-09-18T14:28:46;9.90;;;9.00;;
79361;SDS011;68830;47.566;19.012;2023-09-18T14:31:48;10.73;;;9.75;;
79361;SDS011;68830;47.566;19.012;2023-09-18T14:34:50;10.27;;;9.32;;
79361;SDS011;68830;47.566;19.012;2023-09-18T14:37:54;14.38;;;9.82;;
79361;SDS011;68830;47.566;19.012;2023-09-18T14:40:58;10.90;;;8.98;;
79361;SDS011;68830;47.566;19.012;2023-09-18T14:44:05;9.32;;;8.43;;
79361;SDS011;68830;47.566;19.012;2023-09-18T14:47:10;11.85;;;10.40;;
79361;SDS011;68830;47.566;19.012;2023-09-18T14:50:13;11.30;;;9.82;;
79361;SDS011;68830;47.566;19.012;2023-09-18T14:53:16;10.02;;;9.02;;
79361;SDS011;68830;47.566;19.012;2023-09-18T14:56:19;11.70;;;9.68;;
79361;SDS011;68830;47.566;19.012;2023-09-18T14:59:23;12.85;;;10.05;;
79361;SDS011;68830;47.566;19.012;2023-09-18T15:02:42;10.90;;;9.70;;
79361;SDS011;68830;47.566;19.012;2023-09-18T15:05:45;10.52;;;9.63;;
79361;SDS011;68830;47.566;19.012;2023-09-18T15:08:47;10.93;;;9.65;;
79361;SDS011;68830;47.566;19.012;2023-09-18T15:11:52;10.45;;;9.45;;
79361;SDS011;68830;47.566;19.012;2023-09-18T15:14:55;9.63;;;8.70;;
79361;SDS011;68830;47.566;19.012;2023-09-18T15:17:57;15.35;;;9.98;;
79361;SDS011;68830;47.566;19.012;2023-09-18T15:21:00;11.23;;;9.80;;
79361;SDS011;68830;47.566;19.012;2023-09-18T15:24:04;10.40;;;8.40;;
79361;SDS011;68830;47.566;19.012;2023-09-18T15:27:09;10.32;;;8.85;;
79361;SDS011;68830;47.566;19.012;2023-09-18T15:30:13;9.77;;;8.88;;
79361;SDS011;68830;47.566;19.012;2023-09-18T15:33:16;13.90;;;9.20;;
79361;SDS011;68830;47.566;19.012;2023-09-18T15:36:24;10.45;;;9.05;;
79361;SDS011;68830;47.566;19.012;2023-09-18T15:39:27;9.98;;;8.88;;
79361;SDS011;68830;47.566;19.012;2023-09-18T15:42:32;11.95;;;9.70;;
79361;SDS011;68830;47.566;19.012;2023-09-18T15:45:34;9.35;;;8.45;;
79361;SDS011;68830;47.566;19.012;2023-09-18T15:48:39;10.10;;;9.10;;
79361;SDS011;68830;47.566;19.012;2023-09-18T15:51:42;10.93;;;8.63;;
79361;SDS011;68830;47.566;19.012;2023-09-18T15:54:46;9.95;;;8.75;;
79361;SDS011;68830;47.566;19.012;2023-09-18T15:57:50;10.02;;;9.02;;
79361;SDS011;68830;47.566;19.012;2023-09-18T16:00:54;11.68;;;8.75;;
79361;SDS011;68830;47.566;19.012;2023-09-18T16:04:00;13.07;;;8.68;;
79361;SDS011;68830;47.566;19.012;2023-09-18T16:07:04;10.27;;;9.20;;
79361;SDS011;68830;47.566;19.012;2023-09-18T16:10:06;16.38;;;9.27;;
79361;SDS011;68830;47.566;19.012;2023-09-18T16:13:12;11.82;;;8.32;;
79361;SDS011;68830;47.566;19.012;2023-09-18T16:16:15;10.30;;;9.27;;
79361;SDS011;68830;47.566;19.012;2023-09-18T16:19:19;11.18;;;8.63;;
79361;SDS011;68830;47.566;19.012;2023-09-18T16:22:24;9.25;;;8.40;;
79361;SDS011;68830;47.566;19.012;2023-09-18T16:25:28;11.30;;;9.25;;
79361;SDS011;68830;47.566;19.012;2023-09-18T16:28:32;10.48;;;8.55;;
79361;SDS011;68830;47.566;19.012;2023-09-18T16:34:38;11.60;;;9.18;;
79361;SDS011;68830;47.566;19.012;2023-09-18T16:37:41;9.52;;;8.65;;
79361;SDS011;68830;47.566;19.012;2023-09-18T16:40:47;10.48;;;8.88;;
79361;SDS011;68830;47.566;19.012;2023-09-18T16:43:51;12.88;;;10.40;;
79361;SDS011;68830;47.566;19.012;2023-09-18T16:46:54;10.88;;;9.25;;
79361;SDS011;68830;47.566;19.012;2023-09-18T16:49:58;11.05;;;9.60;;
79361;SDS011;68830;47.566;19.012;2023-09-18T16:53:00;13.68;;;9.63;;
79361;SDS011;68830;47.566;19.012;2023-09-18T16:56:03;11.23;;;10.05;;
79361;SDS011;68830;47.566;19.012;2023-09-18T16:59:07;12.95;;;10.32;;
79361;SDS011;68830;47.566;19.012;2023-09-18T17:02:10;11.38;;;9.80;;
79361;SDS011;68830;47.566;19.012;2023-09-18T17:05:17;10.75;;;9.75;;
79361;SDS011;68830;47.566;19.012;2023-09-18T17:08:20;11.20;;;10.10;;
79361;SDS011;68830;47.566;19.012;2023-09-18T17:11:23;11.52;;;9.93;;
79361;SDS011;68830;47.566;19.012;2023-09-18T17:14:28;12.82;;;10.55;;
79361;SDS011;68830;47.566;19.012;2023-09-18T17:17:31;11.18;;;9.95;;
79361;SDS011;68830;47.566;19.012;2023-09-18T17:20:35;11.40;;;9.75;;
79361;SDS011;68830;47.566;19.012;2023-09-18T17:23:37;13.10;;;9.70;;
79361;SDS011;68830;47.566;19.012;2023-09-18T17:26:41;10.90;;;9.80;;
79361;SDS011;68830;47.566;19.012;2023-09-18T17:29:47;10.70;;;9.55;;
79361;SDS011;68830;47.566;19.012;2023-09-18T17:32:53;10.65;;;9.57;;
79361;SDS011;68830;47.566;19.012;2023-09-18T17:35:56;10.85;;;9.10;;
79361;SDS011;68830;47.566;19.012;2023-09-18T17:38:59;10.75;;;9.73;;
79361;SDS011;68830;47.566;19.012;2023-09-18T17:42:02;12.13;;;9.50;;
79361;SDS011;68830;47.566;19.012;2023-09-18T17:45:07;10.18;;;9.27;;
79361;SDS011;68830;47.566;19.012;2023-09-18T17:48:10;12.35;;;9.40;;
79361;SDS011;68830;47.566;19.012;2023-09-18T17:51:13;10.77;;;9.68;;
79361;SDS011;68830;47.566;19.012;2023-09-18T17:54:17;10.23;;;9.23;;
79361;SDS011;68830;47.566;19.012;2023-09-18T17:57:20;13.77;;;8.40;;